createdAt,value
2023-04-23T00:01:18.548Z,86.63
2023-04-23T00:03:46.541Z,89.88
2023-04-23T00:06:14.456Z,79.22
2023-04-23T00:08:42.463Z,85.75
2023-04-23T00:11:10.309Z,86.72
2023-04-23T00:13:37.831Z,92.53
2023-04-23T00:16:05.513Z,77.78
2023-04-23T00:18:32.634Z,83.97
2023-04-23T00:20:59.767Z,77.13
2023-04-23T00:23:28.188Z,79.05
2023-04-23T00:25:55.312Z,87.13
2023-04-23T00:28:22.803Z,87.55
2023-04-23T00:30:49.999Z,89.82
2023-04-23T00:33:17.309Z,97.93
2023-04-23T00:35:44.346Z,86.45
2023-04-23T00:38:11.461Z,95.30
2023-04-23T00:40:38.792Z,84.78
2023-04-23T00:43:07.177Z,88.75
2023-04-23T00:45:34.629Z,87.78
2023-04-23T00:48:02.982Z,87.97
2023-04-23T00:50:30.054Z,86.60
2023-04-23T00:52:57.118Z,83.97
2023-04-23T00:55:24.825Z,91.47
2023-04-23T00:57:52.444Z,79.15
2023-04-23T01:00:20.379Z,88.50
2023-04-23T01:02:49.837Z,79.10
2023-04-23T01:05:18.030Z,88.50
2023-04-23T01:07:46.744Z,96.20
2023-04-23T01:10:14.302Z,84.85
2023-04-23T01:12:41.454Z,88.53
2023-04-23T01:15:09.492Z,87.22
2023-04-23T01:17:37.010Z,83.78
2023-04-23T01:20:06.364Z,83.38
2023-04-23T01:22:37.259Z,80.35
2023-04-23T01:25:04.760Z,80.82
2023-04-23T01:27:33.243Z,88.65
2023-04-23T01:30:01.519Z,90.13
2023-04-23T01:32:28.825Z,87.75
2023-04-23T01:34:56.734Z,91.15
2023-04-23T01:37:25.274Z,88.30
2023-04-23T01:39:53.064Z,81.75
2023-04-23T01:42:20.152Z,87.90
2023-04-23T01:44:47.290Z,83.53
2023-04-23T01:47:14.576Z,87.05
2023-04-23T01:49:41.699Z,98.10
2023-04-23T01:52:08.759Z,87.63
2023-04-23T01:54:35.742Z,96.25
2023-04-23T01:57:03.112Z,89.63
2023-04-23T01:59:30.119Z,92.80
2023-04-23T02:01:57.260Z,91.00
2023-04-23T02:04:24.703Z,89.38
2023-04-23T02:06:52.307Z,85.32
2023-04-23T02:09:19.549Z,97.53
2023-04-23T02:11:46.655Z,96.05
2023-04-23T02:14:13.861Z,96.70
2023-04-23T02:16:40.958Z,83.95
2023-04-23T02:19:07.933Z,94.43
2023-04-23T02:21:35.006Z,89.57
2023-04-23T02:24:02.195Z,93.60
2023-04-23T02:26:29.682Z,113.97
2023-04-23T02:28:56.771Z,89.55
2023-04-23T02:31:24.262Z,88.07
2023-04-23T02:33:51.951Z,97.22
2023-04-23T02:36:19.626Z,87.80
2023-04-23T02:38:48.623Z,91.13
2023-04-23T02:41:15.752Z,107.32
2023-04-23T02:43:42.830Z,91.65
2023-04-23T02:46:10.023Z,91.70
2023-04-23T02:48:39.274Z,86.15
2023-04-23T02:51:07.552Z,92.97
2023-04-23T02:53:34.672Z,91.45
2023-04-23T02:56:02.486Z,89.45
2023-04-23T02:58:30.370Z,95.15
2023-04-23T03:00:57.834Z,85.15
2023-04-23T03:03:27.021Z,95.78
2023-04-23T03:05:55.260Z,87.15
2023-04-23T03:08:22.608Z,83.65
2023-04-23T03:10:49.766Z,94.55
2023-04-23T03:13:16.993Z,89.95
2023-04-23T03:15:44.209Z,83.75
2023-04-23T03:18:11.401Z,91.80
2023-04-23T03:20:38.564Z,84.40
2023-04-23T03:23:06.485Z,87.50
2023-04-23T03:25:34.286Z,72.90
2023-04-23T03:28:01.559Z,81.85
2023-04-23T03:30:30.245Z,85.13
2023-04-23T03:32:57.928Z,82.45
2023-04-23T03:35:26.300Z,80.95
2023-04-23T03:37:53.895Z,68.95
2023-04-23T03:40:21.324Z,74.60
2023-04-23T03:42:48.452Z,72.35
2023-04-23T03:45:16.923Z,77.68
2023-04-23T03:47:44.183Z,64.65
2023-04-23T03:50:13.312Z,71.38
2023-04-23T03:52:41.036Z,65.22
2023-04-23T03:55:08.680Z,68.20
2023-04-23T03:57:36.695Z,69.95
2023-04-23T04:00:08.241Z,57.03
2023-04-23T04:02:35.870Z,61.47
2023-04-23T04:05:03.252Z,63.20
2023-04-23T04:07:30.583Z,61.22
2023-04-23T04:09:57.718Z,58.03
2023-04-23T04:12:24.784Z,57.50
2023-04-23T04:14:52.421Z,59.08
2023-04-23T04:17:19.464Z,57.78
2023-04-23T04:19:46.470Z,50.63
2023-04-23T04:22:13.585Z,59.25
2023-04-23T04:24:41.880Z,56.60
2023-04-23T04:27:09.511Z,53.80
2023-04-23T04:29:37.024Z,61.15
2023-04-23T04:32:05.316Z,51.55
2023-04-23T04:34:33.047Z,52.33
2023-04-23T04:37:00.829Z,44.88
2023-04-23T04:39:27.971Z,50.08
2023-04-23T04:41:55.308Z,49.40
2023-04-23T04:44:26.467Z,50.35
2023-04-23T04:46:53.699Z,50.50
2023-04-23T04:49:22.414Z,47.00
2023-04-23T04:51:49.470Z,45.70
2023-04-23T04:54:16.538Z,45.20
2023-04-23T04:56:43.592Z,46.30
2023-04-23T04:59:10.865Z,47.03
2023-04-23T05:01:38.393Z,40.28
2023-04-23T05:04:06.230Z,49.97
2023-04-23T05:06:33.530Z,43.10
2023-04-23T05:09:00.701Z,42.70
2023-04-23T05:11:27.778Z,50.40
2023-04-23T05:13:54.861Z,47.35
2023-04-23T05:16:22.511Z,46.47
2023-04-23T05:18:49.703Z,46.22
2023-04-23T05:21:16.909Z,40.95
2023-04-23T05:23:44.037Z,39.92
2023-04-23T05:26:11.236Z,40.25
2023-04-23T05:28:38.335Z,40.92
2023-04-23T05:31:05.417Z,40.20
2023-04-23T05:33:39.174Z,47.63
2023-04-23T05:36:13.731Z,45.65
2023-04-23T05:38:40.812Z,40.08
2023-04-23T05:41:07.912Z,39.28
2023-04-23T05:43:34.982Z,38.90
2023-04-23T05:46:04.434Z,44.83
2023-04-23T05:48:31.688Z,39.05
2023-04-23T05:50:59.071Z,40.55
2023-04-23T05:53:27.647Z,35.28
2023-04-23T05:55:54.776Z,41.42
2023-04-23T05:58:22.541Z,43.50
2023-04-23T06:00:50.202Z,41.92
2023-04-23T06:03:17.531Z,37.65
2023-04-23T06:05:45.432Z,40.38
2023-04-23T06:08:12.520Z,40.05
2023-04-23T06:10:39.582Z,32.92
2023-04-23T06:13:06.680Z,35.83
2023-04-23T06:15:33.880Z,34.58
2023-04-23T06:18:01.318Z,37.38
2023-04-23T06:20:28.991Z,37.95
2023-04-23T06:22:56.343Z,34.78
2023-04-23T06:25:23.645Z,32.22
2023-04-23T06:27:50.675Z,29.50
2023-04-23T06:30:17.711Z,32.60
2023-04-23T06:32:45.086Z,29.50
2023-04-23T06:35:12.420Z,31.23
2023-04-23T06:37:39.435Z,35.85
2023-04-23T06:40:07.058Z,32.88
2023-04-23T06:42:34.068Z,33.15
2023-04-23T06:45:06.219Z,29.33
2023-04-23T06:47:33.428Z,28.80
2023-04-23T06:50:00.637Z,26.00
2023-04-23T06:52:27.681Z,27.30
2023-04-23T06:54:54.849Z,28.15
2023-04-23T06:57:22.527Z,26.30
2023-04-23T06:59:49.611Z,21.95
2023-04-23T07:02:16.756Z,25.48
2023-04-23T07:04:44.465Z,21.98
2023-04-23T07:07:12.324Z,24.15
2023-04-23T07:09:39.360Z,21.90
2023-04-23T07:12:06.484Z,17.42
2023-04-23T07:14:33.572Z,18.70
2023-04-23T07:17:00.707Z,19.85
2023-04-23T07:19:27.944Z,18.17
2023-04-23T07:21:55.145Z,16.40
2023-04-23T07:24:22.809Z,15.63
2023-04-23T07:26:49.898Z,14.82
2023-04-23T07:29:16.923Z,14.90
2023-04-23T07:31:44.634Z,14.02
2023-04-23T07:34:11.968Z,16.70
2023-04-23T07:36:39.010Z,15.65
2023-04-23T07:39:06.664Z,14.93
2023-04-23T07:41:33.815Z,13.10
2023-04-23T07:44:01.336Z,11.75
2023-04-23T07:46:28.468Z,12.10
2023-04-23T07:48:55.693Z,17.25
2023-04-23T07:51:26.590Z,11.95
2023-04-23T07:53:58.032Z,13.15
2023-04-23T07:56:25.073Z,17.58
2023-04-23T07:58:53.907Z,12.75
2023-04-23T08:01:22.673Z,10.98
2023-04-23T08:03:49.806Z,16.23
2023-04-23T08:06:18.262Z,10.10
2023-04-23T08:08:45.286Z,12.32
2023-04-23T08:11:12.275Z,8.52
2023-04-23T08:13:39.313Z,8.63
2023-04-23T08:16:07.117Z,9.15
2023-04-23T08:18:35.251Z,7.18
2023-04-23T08:21:02.333Z,10.13
2023-04-23T08:23:29.482Z,5.88
2023-04-23T08:25:56.508Z,6.85
2023-04-23T08:28:23.629Z,10.05
2023-04-23T08:30:50.781Z,6.07
2023-04-23T08:33:17.828Z,13.00
2023-04-23T08:35:45.297Z,15.40
2023-04-23T08:38:12.378Z,8.52
2023-04-23T08:40:42.574Z,9.88
2023-04-23T08:43:31.571Z,9.80
2023-04-23T08:46:04.281Z,11.93
2023-04-23T08:48:34.254Z,7.88
2023-04-23T08:51:02.785Z,17.83
2023-04-23T08:53:32.580Z,7.53
2023-04-23T08:56:00.724Z,4.63
2023-04-23T08:58:28.135Z,11.50
2023-04-23T09:00:57.974Z,6.28
2023-04-23T09:03:26.211Z,7.43
2023-04-23T09:05:54.165Z,8.93
2023-04-23T09:08:23.740Z,6.53
2023-04-23T09:10:52.392Z,10.00
2023-04-23T09:13:19.614Z,8.73
2023-04-23T09:15:46.819Z,7.35
2023-04-23T09:18:13.989Z,8.15
2023-04-23T09:20:41.729Z,6.72
2023-04-23T09:23:09.062Z,7.45
2023-04-23T09:25:36.951Z,11.95
2023-04-23T09:28:07.607Z,6.25
2023-04-23T09:30:45.189Z,7.28
2023-04-23T09:33:13.911Z,6.13
2023-04-23T09:35:43.092Z,9.80
2023-04-23T09:38:10.680Z,7.03
2023-04-23T09:40:38.729Z,6.03
2023-04-23T09:43:07.559Z,4.68
2023-04-23T09:45:35.550Z,8.98
2023-04-23T09:48:02.855Z,8.27
2023-04-23T09:50:33.893Z,8.35
2023-04-23T09:53:01.345Z,4.07
2023-04-23T09:55:35.736Z,8.48
2023-04-23T09:58:04.604Z,5.35
2023-04-23T10:00:36.662Z,4.93
2023-04-23T10:03:04.911Z,5.50
2023-04-23T10:05:41.048Z,6.60
2023-04-23T10:08:19.652Z,3.17
2023-04-23T10:10:59.957Z,8.07
2023-04-23T10:13:30.646Z,7.43
2023-04-23T10:16:10.130Z,3.60
2023-04-23T10:18:46.927Z,4.50
2023-04-23T10:21:15.333Z,6.60
2023-04-23T10:23:44.471Z,7.28
2023-04-23T10:26:16.371Z,7.10
2023-04-23T10:28:48.149Z,4.88
2023-04-23T10:31:16.321Z,5.03
2023-04-23T10:33:55.832Z,11.90
2023-04-23T10:36:25.895Z,4.90
2023-04-23T10:38:58.269Z,7.47
2023-04-23T10:43:57.638Z,8.93
2023-04-23T10:46:29.087Z,4.70
2023-04-23T10:49:07.896Z,4.05
2023-04-23T10:54:08.234Z,4.72
2023-04-23T10:56:35.851Z,6.30
2023-04-23T10:59:05.676Z,3.75
2023-04-23T11:01:32.826Z,5.35
2023-04-23T11:04:00.799Z,4.45
2023-04-23T11:07:08.063Z,4.47
2023-04-23T11:09:35.140Z,4.53
2023-04-23T11:12:03.074Z,6.07
2023-04-23T11:14:41.931Z,8.00
2023-04-23T11:17:12.505Z,5.43
2023-04-23T11:19:41.407Z,2.92
2023-04-23T11:22:16.636Z,3.70
2023-04-23T11:24:45.210Z,4.93
2023-04-23T11:27:15.086Z,5.65
2023-04-23T11:29:45.277Z,3.85
2023-04-23T11:32:16.047Z,8.32
2023-04-23T11:34:44.989Z,3.35
2023-04-23T11:37:15.095Z,4.03
2023-04-23T11:39:44.128Z,6.95
2023-04-23T11:42:13.239Z,5.65
2023-04-23T11:44:47.919Z,2.72
2023-04-23T11:47:16.805Z,2.58
2023-04-23T11:49:45.496Z,5.13
2023-04-23T11:52:14.389Z,5.50
2023-04-23T11:54:42.304Z,4.85
2023-04-23T11:57:10.359Z,3.25
2023-04-23T11:59:37.736Z,3.75
2023-04-23T12:02:05.160Z,3.92
2023-04-23T12:04:33.512Z,3.25
2023-04-23T12:07:12.777Z,3.78
2023-04-23T12:09:46.537Z,3.83
2023-04-23T12:12:15.182Z,5.78
2023-04-23T12:14:42.285Z,4.97
2023-04-23T12:17:10.784Z,3.58
2023-04-23T12:19:40.567Z,4.40
2023-04-23T12:22:08.654Z,3.00
2023-04-23T12:24:51.694Z,4.57
2023-04-23T12:29:49.221Z,4.53
2023-04-23T12:32:16.311Z,6.18
2023-04-23T12:34:54.910Z,3.65
2023-04-23T12:37:26.907Z,3.25
2023-04-23T12:39:56.402Z,2.72
2023-04-23T12:42:24.283Z,3.00
2023-04-23T12:44:52.814Z,2.22
2023-04-23T12:47:19.932Z,2.55
2023-04-23T12:49:49.476Z,9.52
2023-04-23T12:52:16.632Z,4.53
2023-04-23T12:54:45.006Z,1.80
2023-04-23T12:57:13.026Z,2.10
2023-04-23T12:59:40.226Z,6.03
2023-04-23T13:02:08.019Z,2.95
2023-04-23T13:04:36.587Z,4.78
2023-04-23T13:07:04.520Z,2.47
2023-04-23T13:09:31.610Z,2.22
2023-04-23T13:11:59.917Z,5.80
2023-04-23T13:14:27.917Z,4.07
2023-04-23T13:16:55.114Z,2.42
2023-04-23T13:19:22.706Z,2.53
2023-04-23T13:21:50.035Z,2.90
2023-04-23T13:24:17.123Z,6.22
2023-04-23T13:26:44.215Z,2.33
2023-04-23T13:29:11.796Z,3.83
2023-04-23T13:31:38.795Z,4.72
2023-04-23T13:34:05.935Z,4.47
2023-04-23T13:36:33.013Z,2.70
2023-04-23T13:38:59.987Z,1.40
2023-04-23T13:41:27.108Z,3.58
2023-04-23T13:43:54.183Z,4.85
2023-04-23T13:46:21.331Z,7.65
2023-04-23T13:48:48.492Z,1.85
2023-04-23T13:51:33.074Z,1.83
2023-04-23T13:54:01.983Z,1.83
2023-04-23T13:56:30.601Z,4.68
2023-04-23T13:59:18.833Z,3.83
2023-04-23T14:01:49.876Z,3.80
2023-04-23T14:04:18.622Z,0.90
2023-04-23T14:06:46.578Z,3.40
2023-04-23T14:09:13.752Z,4.15
2023-04-23T14:11:41.411Z,5.82
2023-04-23T14:14:08.810Z,3.35
2023-04-23T14:16:36.223Z,6.28
2023-04-23T14:19:03.248Z,1.75
2023-04-23T14:21:30.547Z,1.55
2023-04-23T14:24:24.582Z,3.13
2023-04-23T14:26:51.608Z,4.05
2023-04-23T14:29:54.943Z,6.70
2023-04-23T14:32:23.187Z,5.43
2023-04-23T14:34:51.164Z,2.60
2023-04-23T14:37:18.477Z,6.70
2023-04-23T14:39:46.842Z,3.65
2023-04-23T14:42:14.004Z,5.97
2023-04-23T14:44:41.082Z,5.57
2023-04-23T14:47:10.114Z,2.10
2023-04-23T14:49:37.304Z,4.72
2023-04-23T14:52:04.416Z,3.20
2023-04-23T14:54:31.387Z,2.58
2023-04-23T14:56:58.432Z,2.88
2023-04-23T14:59:25.552Z,2.97
2023-04-23T15:01:56.822Z,8.05
2023-04-23T15:04:24.201Z,4.00
2023-04-23T15:06:51.320Z,3.25
2023-04-23T15:09:18.396Z,3.58
2023-04-23T15:11:46.350Z,4.43
2023-04-23T15:14:19.650Z,5.45
2023-04-23T15:16:49.324Z,5.60
2023-04-23T15:19:18.585Z,3.13
2023-04-23T15:21:47.224Z,8.52
2023-04-23T15:24:15.274Z,3.20
2023-04-23T15:26:42.850Z,4.15
2023-04-23T15:29:10.254Z,7.40
2023-04-23T15:31:38.337Z,4.63
2023-04-23T15:34:07.129Z,5.07
2023-04-23T15:36:35.552Z,6.32
2023-04-23T15:39:02.902Z,3.92
2023-04-23T15:41:30.075Z,5.07
2023-04-23T15:43:57.140Z,5.22
2023-04-23T15:46:24.235Z,7.00
2023-04-23T15:48:51.300Z,9.25
2023-04-23T15:51:18.327Z,4.75
2023-04-23T15:53:45.970Z,7.93
2023-04-23T15:56:13.487Z,6.20
2023-04-23T15:58:40.627Z,6.32
2023-04-23T16:01:09.746Z,4.82
2023-04-23T16:03:37.286Z,9.88
2023-04-23T16:06:05.116Z,6.90
2023-04-23T16:08:32.640Z,4.10
2023-04-23T16:10:59.810Z,3.78
2023-04-23T16:13:28.804Z,3.28
2023-04-23T16:15:56.133Z,4.70
2023-04-23T16:18:25.171Z,1.55
2023-04-23T16:20:52.863Z,3.22
2023-04-23T16:23:21.012Z,3.20
2023-04-23T16:25:48.401Z,4.00
2023-04-23T16:28:15.985Z,3.30
2023-04-23T16:30:43.035Z,4.18
2023-04-23T16:33:10.352Z,3.58
2023-04-23T16:35:37.922Z,2.08
2023-04-23T16:38:05.093Z,2.35
2023-04-23T16:40:32.289Z,2.10
2023-04-23T16:42:59.383Z,4.20
2023-04-23T16:45:26.485Z,2.45
2023-04-23T16:47:54.168Z,2.28
2023-04-23T16:50:21.206Z,3.90
2023-04-23T16:52:48.244Z,2.65
2023-04-23T16:55:15.499Z,2.30
2023-04-23T16:57:43.016Z,3.75
2023-04-23T17:00:11.855Z,3.28
2023-04-23T17:02:41.270Z,2.95
2023-04-23T17:05:10.037Z,3.35
2023-04-23T17:07:37.214Z,2.38
2023-04-23T17:10:04.488Z,3.97
2023-04-23T17:12:31.485Z,5.25
2023-04-23T17:14:58.582Z,2.70
2023-04-23T17:17:25.681Z,3.08
2023-04-23T17:19:53.565Z,5.05
2023-04-23T17:22:20.833Z,4.38
2023-04-23T17:24:48.048Z,4.03
2023-04-23T17:27:15.219Z,8.88
2023-04-23T17:29:42.292Z,3.45
2023-04-23T17:32:09.360Z,4.68
2023-04-23T17:34:36.476Z,9.00
2023-04-23T17:37:03.535Z,4.00
2023-04-23T17:39:30.517Z,3.55
2023-04-23T17:41:57.608Z,4.60
2023-04-23T17:44:24.814Z,3.50
2023-04-23T17:46:55.091Z,4.00
2023-04-23T17:49:23.892Z,7.32
2023-04-23T17:51:50.938Z,4.13
2023-04-23T17:54:18.168Z,5.15
2023-04-23T17:56:45.342Z,6.72
2023-04-23T17:59:12.451Z,3.22
2023-04-23T18:01:39.662Z,5.93
2023-04-23T18:04:07.081Z,6.75
2023-04-23T18:06:36.004Z,3.65
2023-04-23T18:09:03.396Z,4.68
2023-04-23T18:11:30.506Z,4.15
2023-04-23T18:13:57.824Z,4.65
2023-04-23T18:16:25.239Z,8.07
2023-04-23T18:18:52.836Z,3.88
2023-04-23T18:21:19.936Z,6.78
2023-04-23T18:23:47.350Z,6.13
2023-04-23T18:26:14.487Z,6.38
2023-04-23T18:28:42.181Z,3.42
2023-04-23T18:31:09.633Z,4.57
2023-04-23T18:33:41.676Z,3.60
2023-04-23T18:36:24.508Z,3.63
2023-04-23T18:38:52.361Z,3.25
2023-04-23T18:41:19.330Z,8.55
2023-04-23T18:43:46.740Z,3.00
2023-04-23T18:46:14.009Z,4.82
2023-04-23T18:49:06.986Z,6.68
2023-04-23T18:51:43.604Z,7.50
2023-04-23T18:54:17.322Z,3.55
2023-04-23T18:59:14.391Z,4.22
2023-04-23T19:01:43.123Z,5.85
2023-04-23T19:04:10.500Z,3.05
2023-04-23T19:06:38.182Z,5.25
2023-04-23T19:09:05.365Z,4.10
2023-04-23T19:11:35.159Z,4.82
2023-04-23T19:14:02.182Z,4.55
2023-04-23T19:16:29.469Z,5.57
2023-04-23T19:18:56.623Z,13.18
2023-04-23T19:21:24.182Z,5.88
2023-04-23T19:23:53.579Z,8.07
2023-04-23T19:26:20.883Z,6.38
2023-04-23T19:28:48.019Z,2.88
2023-04-23T19:31:15.304Z,3.42
2023-04-23T19:33:45.362Z,4.32
2023-04-23T19:36:12.414Z,4.32
2023-04-23T19:38:39.428Z,9.90
2023-04-23T19:41:07.716Z,5.80
2023-04-23T19:43:34.815Z,3.50
2023-04-23T19:46:01.989Z,8.15
2023-04-23T19:48:29.110Z,5.30
2023-04-23T19:50:56.226Z,6.28
2023-04-23T19:53:24.218Z,6.03
2023-04-23T19:55:51.854Z,8.95
2023-04-23T19:58:19.461Z,5.03
2023-04-23T20:00:46.625Z,5.15
2023-04-23T20:03:14.969Z,6.43
2023-04-23T20:05:45.116Z,6.72
2023-04-23T20:08:25.232Z,6.78
2023-04-23T20:10:53.722Z,6.72
2023-04-23T20:13:21.129Z,14.00
2023-04-23T20:15:50.107Z,7.50
2023-04-23T20:18:18.317Z,5.25
2023-04-23T20:20:46.104Z,3.55
2023-04-23T20:23:13.127Z,4.10
2023-04-23T20:25:40.541Z,3.88
2023-04-23T20:28:09.968Z,4.63
2023-04-23T20:30:37.064Z,3.67
2023-04-23T20:33:04.339Z,4.13
2023-04-23T20:35:31.538Z,6.63
2023-04-23T20:37:58.628Z,3.55
2023-04-23T20:40:26.029Z,3.15
2023-04-23T20:42:54.424Z,5.80
2023-04-23T20:45:23.103Z,2.90
2023-04-23T20:47:51.827Z,3.53
2023-04-23T20:50:19.222Z,5.57
2023-04-23T20:52:46.395Z,6.55
2023-04-23T20:55:13.437Z,4.40
2023-04-23T20:57:41.214Z,8.15
2023-04-23T21:00:11.637Z,4.03
2023-04-23T21:02:39.109Z,5.20
2023-04-23T21:05:07.673Z,4.55
2023-04-23T21:07:36.653Z,2.85
2023-04-23T21:10:04.624Z,6.22
2023-04-23T21:12:32.191Z,3.20
2023-04-23T21:14:59.311Z,3.83
2023-04-23T21:17:26.504Z,2.67
2023-04-23T21:19:53.877Z,2.40
2023-04-23T21:22:21.090Z,3.47
2023-04-23T21:24:48.146Z,1.73
2023-04-23T21:27:22.273Z,1.50
2023-04-23T21:29:49.577Z,2.25
2023-04-23T21:32:16.850Z,1.58
2023-04-23T21:34:43.981Z,1.30
2023-04-23T21:37:11.057Z,2.40
2023-04-23T21:39:38.099Z,3.03
2023-04-23T21:42:05.308Z,1.45
2023-04-23T21:44:32.836Z,0.95
2023-04-23T21:46:59.966Z,0.93
2023-04-23T21:49:27.743Z,1.25
2023-04-23T21:51:55.987Z,0.70
2023-04-23T21:54:25.913Z,0.80
2023-04-23T21:56:53.507Z,0.95
2023-04-23T21:59:20.785Z,0.70
2023-04-23T22:01:47.835Z,0.70
2023-04-23T22:04:15.662Z,1.75
2023-04-23T22:06:44.426Z,1.13
2023-04-23T22:09:12.944Z,3.22
2023-04-23T22:11:44.208Z,1.02
2023-04-23T22:14:16.497Z,1.02
2023-04-23T22:16:43.520Z,1.33
2023-04-23T22:19:10.584Z,1.20
2023-04-23T22:21:37.663Z,1.13
2023-04-23T22:24:05.989Z,1.70
2023-04-23T22:26:33.986Z,0.93
2023-04-23T22:29:01.541Z,1.70
2023-04-23T22:31:28.659Z,1.40
2023-04-23T22:33:55.848Z,7.22
2023-04-23T22:36:25.248Z,1.90
2023-04-23T22:38:53.356Z,10.50
2023-04-23T22:41:20.845Z,1.95
2023-04-23T22:43:47.999Z,1.85
2023-04-23T22:46:15.705Z,1.42
2023-04-23T22:48:44.975Z,2.92
2023-04-23T22:51:12.425Z,1.98
2023-04-23T22:53:40.177Z,2.15
2023-04-23T22:56:07.566Z,2.10
2023-04-23T22:58:34.638Z,2.55
2023-04-23T23:01:01.881Z,3.00
2023-04-23T23:03:29.139Z,3.47
2023-04-23T23:05:56.310Z,4.88
2023-04-23T23:08:23.931Z,6.63
2023-04-23T23:10:50.966Z,5.72
2023-04-23T23:13:18.125Z,5.80
2023-04-23T23:15:45.514Z,4.05
2023-04-23T23:18:12.596Z,4.68
2023-04-23T23:20:41.044Z,3.67
2023-04-23T23:23:08.066Z,4.82
2023-04-23T23:25:38.264Z,2.25
2023-04-23T23:28:05.323Z,1.73
2023-04-23T23:30:32.467Z,4.75
2023-04-23T23:32:59.695Z,3.80
2023-04-23T23:35:26.812Z,3.05
2023-04-23T23:37:54.061Z,4.88
2023-04-23T23:40:21.090Z,3.38
2023-04-23T23:42:48.148Z,3.78
2023-04-23T23:45:15.437Z,3.22
